Topsail Beach, North Carolina
Current Conditions -  °F | °C
As of 3:56 AM on Friday 24 Oct 2014 (Local Time) from KNCA Reporting Station
Clear Clear  
Wind Chill: 47°   Ceiling: Unl
Heat Index: 47°   Visibility: 10mi
Dew Point: 45°   Wind: 3mph
Humidity: 93%   Direction: 280°W
Pressure: 29.97"   Gusts: NA
Location:  34.4895°N, 77.514°W
Report Text: KNCA 240756Z AUTO 28003KT 10SM CLR 08/07 A2997 RMK AO2 SLP151 T00830072
Loading
Personal Weather Stations






























Interactive Weather Map
Tropical Storm Tracking
New forecast layout! Learn more

10-Day Weather Forecast

Advertisements
Track Severe Weather on mobile